Time;durP1;ratioP1;P1;durP2;ratioP2;P2;SDS_P1;SDS_P2;PMS_P1;PMS_P2;Temp;Humidity;BMP_temperature;BMP_pressure;BME280_temperature;BME280_humidity;BME280_pressure;Samples;Min_cycle;Max_cycle;Signal;HPM_P1;HPM_P2
2023/07/30 00:02:03;;;;;;;8.88;2.75;;;;;;;;;;4973720;28;20526;-58
2023/07/30 00:04:28;;;;;;;10.00;2.97;;;;;;;;;;4974324;28;20637;-58
2023/07/30 00:06:54;;;;;;;11.48;3.05;;;;;;;;;;4981292;28;20221;-58
2023/07/30 00:09:19;;;;;;;11.63;3.40;;;;;;;;;;4982199;28;20322;-58
2023/07/30 00:11:45;;;;;;;8.80;3.00;;;;;;;;;;4963762;28;20209;-58
2023/07/30 00:14:10;;;;;;;10.35;3.33;;;;;;;;;;4981639;28;20220;-58
2023/07/30 00:16:35;;;;;;;8.15;3.58;;;;;;;;;;4981288;28;20205;-58
2023/07/30 00:19:01;;;;;;;10.73;3.40;;;;;;;;;;4981399;28;20217;-58
2023/07/30 00:21:26;;;;;;;11.23;4.15;;;;;;;;;;4977479;28;20821;-58
2023/07/30 00:23:51;;;;;;;10.65;3.13;;;;;;;;;;4974212;28;20251;-58
2023/07/30 00:26:17;;;;;;;7.28;3.35;;;;;;;;;;4973699;28;20795;-58
2023/07/30 00:28:42;;;;;;;10.65;3.60;;;;;;;;;;4978847;28;20259;-58
2023/07/30 00:31:07;;;;;;;10.05;3.60;;;;;;;;;;4981097;28;20221;-58
2023/07/30 00:33:33;;;;;;;12.75;3.58;;;;;;;;;;4982104;28;20287;-59
2023/07/30 00:35:58;;;;;;;11.55;3.45;;;;;;;;;;4982144;28;20208;-58
2023/07/30 00:38:23;;;;;;;10.82;3.60;;;;;;;;;;4980462;28;20209;-59
2023/07/30 00:40:49;;;;;;;9.57;3.80;;;;;;;;;;4982171;28;20708;-58
2023/07/30 00:43:14;;;;;;;8.85;3.47;;;;;;;;;;4978641;28;20248;-58
2023/07/30 00:45:40;;;;;;;8.30;3.58;;;;;;;;;;4973836;28;20213;-59
2023/07/30 00:48:05;;;;;;;9.40;3.58;;;;;;;;;;4973328;28;20244;-59
2023/07/30 00:50:30;;;;;;;11.60;4.13;;;;;;;;;;4971526;28;20486;-58
2023/07/30 00:52:56;;;;;;;11.38;4.03;;;;;;;;;;4978852;28;20225;-58
2023/07/30 00:55:21;;;;;;;11.93;3.90;;;;;;;;;;4978715;28;20833;-59
2023/07/30 00:57:46;;;;;;;9.93;3.83;;;;;;;;;;4977128;28;20217;-58
2023/07/30 01:00:12;;;;;;;11.68;4.05;;;;;;;;;;4960337;28;20213;-59
2023/07/30 01:02:37;;;;;;;12.38;3.88;;;;;;;;;;4978815;28;20233;-58
2023/07/30 01:05:03;;;;;;;11.15;3.80;;;;;;;;;;4977553;28;20233;-58
2023/07/30 01:07:29;;;;;;;8.75;3.80;;;;;;;;;;4971041;28;20421;-58
2023/07/30 01:09:54;;;;;;;15.65;3.90;;;;;;;;;;4970995;28;20228;-59
2023/07/30 01:12:20;;;;;;;11.80;3.80;;;;;;;;;;4970836;28;20236;-58
2023/07/30 01:14:45;;;;;;;11.35;3.70;;;;;;;;;;4957256;28;20209;-58
2023/07/30 01:17:11;;;;;;;10.23;3.55;;;;;;;;;;4961013;28;20681;-59
2023/07/30 01:19:36;;;;;;;12.27;4.28;;;;;;;;;;4961216;28;20208;-58
2023/07/30 01:22:02;;;;;;;8.68;3.75;;;;;;;;;;4976471;28;20229;-59
2023/07/30 01:24:27;;;;;;;6.60;3.13;;;;;;;;;;4978214;28;21351;-58
2023/07/30 01:26:55;;;;;;;12.50;4.15;;;;;;;;;;4978557;28;20209;-58
2023/07/30 01:29:21;;;;;;;10.18;3.35;;;;;;;;;;4962175;28;20245;-58
2023/07/30 01:31:47;;;;;;;11.55;3.78;;;;;;;;;;4989344;28;20209;-58
2023/07/30 01:34:12;;;;;;;11.57;3.80;;;;;;;;;;4990811;28;20560;-59
2023/07/30 01:36:38;;;;;;;13.32;3.88;;;;;;;;;;4992110;28;20635;-59
2023/07/30 01:39:03;;;;;;;9.95;3.35;;;;;;;;;;4989382;28;20216;-59
2023/07/30 01:41:28;;;;;;;8.73;3.33;;;;;;;;;;4991179;28;20217;-59
2023/07/30 01:43:54;;;;;;;10.45;3.88;;;;;;;;;;4991990;28;20658;-59
2023/07/30 01:46:19;;;;;;;9.07;3.40;;;;;;;;;;4990021;28;20216;-59
2023/07/30 01:48:44;;;;;;;8.02;3.65;;;;;;;;;;4990171;28;20224;-59
2023/07/30 01:51:09;;;;;;;10.05;3.55;;;;;;;;;;4991650;28;20737;-59
2023/07/30 01:53:35;;;;;;;11.82;3.50;;;;;;;;;;4991426;28;20216;-59
2023/07/30 01:56:00;;;;;;;14.48;4.70;;;;;;;;;;4989300;28;20670;-59
2023/07/30 01:58:25;;;;;;;10.73;3.80;;;;;;;;;;4991422;28;20220;-59
2023/07/30 02:00:50;;;;;;;10.30;3.30;;;;;;;;;;4991791;28;20643;-59
2023/07/30 02:03:16;;;;;;;14.38;3.78;;;;;;;;;;4987730;28;20224;-59
2023/07/30 02:05:41;;;;;;;10.73;3.30;;;;;;;;;;4991658;28;20224;-59
2023/07/30 02:08:06;;;;;;;11.20;3.92;;;;;;;;;;4991247;28;20774;-59
2023/07/30 02:10:32;;;;;;;10.07;3.80;;;;;;;;;;4989663;28;20213;-59
2023/07/30 02:12:58;;;;;;;12.88;3.78;;;;;;;;;;4994895;28;20264;-59
2023/07/30 02:15:23;;;;;;;20.40;4.60;;;;;;;;;;4994474;28;20668;-59
2023/07/30 02:17:48;;;;;;;8.85;4.32;;;;;;;;;;4993625;28;20213;-59
2023/07/30 02:20:13;;;;;;;12.48;4.30;;;;;;;;;;4993810;28;20574;-59
2023/07/30 02:22:39;;;;;;;10.43;3.72;;;;;;;;;;4994111;28;20719;-59
2023/07/30 02:25:04;;;;;;;19.73;4.20;;;;;;;;;;4990948;28;20564;-59
2023/07/30 02:27:30;;;;;;;15.50;4.03;;;;;;;;;;4975463;28;20308;-59
2023/07/30 02:29:55;;;;;;;11.57;3.95;;;;;;;;;;4975923;28;20217;-59
2023/07/30 02:32:20;;;;;;;11.77;4.03;;;;;;;;;;4979328;28;20217;-59
2023/07/30 02:34:46;;;;;;;13.75;4.20;;;;;;;;;;4983735;28;20213;-59
2023/07/30 02:37:11;;;;;;;27.73;4.90;;;;;;;;;;4984014;28;20213;-59
2023/07/30 02:39:36;;;;;;;8.90;3.47;;;;;;;;;;4982394;28;20694;-59
2023/07/30 02:42:02;;;;;;;10.70;3.97;;;;;;;;;;4983802;28;20280;-59
2023/07/30 02:44:27;;;;;;;14.40;4.10;;;;;;;;;;4983578;28;20229;-59
2023/07/30 02:46:52;;;;;;;14.95;4.45;;;;;;;;;;4981860;28;20243;-59
2023/07/30 02:49:18;;;;;;;11.05;3.80;;;;;;;;;;4975340;28;20221;-59
2023/07/30 02:51:48;;;;;;;12.35;4.13;;;;;;;;;;4975746;28;20579;-59
2023/07/30 02:54:14;;;;;;;14.35;4.50;;;;;;;;;;4977201;28;20219;-59
2023/07/30 02:56:39;;;;;;;10.00;4.07;;;;;;;;;;4983644;28;20209;-59
2023/07/30 02:59:04;;;;;;;14.68;4.38;;;;;;;;;;4982803;28;20592;-59
2023/07/30 03:01:29;;;;;;;15.90;4.20;;;;;;;;;;4983627;28;20777;-59
2023/07/30 03:03:55;;;;;;;9.50;3.95;;;;;;;;;;4983386;28;20337;-59
2023/07/30 03:06:20;;;;;;;11.93;4.10;;;;;;;;;;4982704;28;20225;-59
2023/07/30 03:08:45;;;;;;;11.65;4.85;;;;;;;;;;4983296;28;20685;-59
2023/07/30 03:11:11;;;;;;;16.25;4.57;;;;;;;;;;4976820;28;20542;-59
2023/07/30 03:13:36;;;;;;;16.20;4.78;;;;;;;;;;4974777;28;20205;-59
2023/07/30 03:16:01;;;;;;;13.05;4.65;;;;;;;;;;4974791;28;20320;-59
2023/07/30 03:18:26;;;;;;;15.95;4.95;;;;;;;;;;4981698;28;20212;-59
2023/07/30 03:20:57;;;;;;;11.02;5.03;;;;;;;;;;4982577;28;20213;-59
2023/07/30 03:23:23;;;;;;;13.80;4.50;;;;;;;;;;4982705;28;20316;-59
2023/07/30 03:25:48;;;;;;;18.88;5.70;;;;;;;;;;4983159;28;20374;-59
2023/07/30 03:28:13;;;;;;;14.15;4.80;;;;;;;;;;4982239;28;20242;-59
2023/07/30 03:30:38;;;;;;;14.10;4.63;;;;;;;;;;4984188;28;20241;-59
2023/07/30 03:33:04;;;;;;;14.02;5.43;;;;;;;;;;4980591;28;20217;-59
2023/07/30 03:35:29;;;;;;;21.27;5.72;;;;;;;;;;4992033;28;20303;-59
2023/07/30 03:37:54;;;;;;;18.75;6.10;;;;;;;;;;4989634;28;20906;-59
2023/07/30 03:40:19;;;;;;;18.00;5.45;;;;;;;;;;4989745;28;20225;-59
2023/07/30 03:42:45;;;;;;;17.80;5.88;;;;;;;;;;4987151;28;20237;-59
2023/07/30 03:45:10;;;;;;;14.77;5.40;;;;;;;;;;4988622;28;20216;-59
2023/07/30 03:47:35;;;;;;;16.00;5.60;;;;;;;;;;4991749;28;20231;-59
2023/07/30 03:50:01;;;;;;;15.20;5.97;;;;;;;;;;4989767;28;20307;-59
2023/07/30 03:52:26;;;;;;;21.55;7.03;;;;;;;;;;4988880;28;20213;-59
2023/07/30 03:54:51;;;;;;;15.30;6.03;;;;;;;;;;4987484;28;20225;-59
2023/07/30 03:57:16;;;;;;;19.17;6.60;;;;;;;;;;4988805;28;20215;-59
2023/07/30 03:59:42;;;;;;;19.92;6.30;;;;;;;;;;4986190;28;20841;-59
2023/07/30 04:02:07;;;;;;;22.75;6.90;;;;;;;;;;4972725;28;20248;-59
2023/07/30 04:04:32;;;;;;;21.17;6.95;;;;;;;;;;4972220;28;20759;-59
2023/07/30 04:06:58;;;;;;;22.60;6.63;;;;;;;;;;4972134;28;20209;-59
2023/07/30 04:09:23;;;;;;;18.30;6.75;;;;;;;;;;4973727;28;20241;-59
2023/07/30 04:11:48;;;;;;;18.83;6.15;;;;;;;;;;4979416;28;20753;-59
2023/07/30 04:14:13;;;;;;;22.63;7.30;;;;;;;;;;4978861;28;20209;-59
2023/07/30 04:16:39;;;;;;;16.60;7.43;;;;;;;;;;4978328;28;20213;-59
2023/07/30 04:19:04;;;;;;;22.67;7.10;;;;;;;;;;4977742;28;20213;-59
2023/07/30 04:21:29;;;;;;;20.83;7.35;;;;;;;;;;4979667;28;20255;-59
2023/07/30 04:23:55;;;;;;;21.98;7.85;;;;;;;;;;4976348;28;20225;-59
2023/07/30 04:26:20;;;;;;;20.10;7.30;;;;;;;;;;4969453;28;20537;-59
2023/07/30 04:28:45;;;;;;;22.70;7.28;;;;;;;;;;4971763;28;20241;-59
2023/07/30 04:31:10;;;;;;;22.27;7.25;;;;;;;;;;4972490;28;20303;-59
2023/07/30 04:33:36;;;;;;;29.42;8.10;;;;;;;;;;4977701;28;21253;-59
2023/07/30 04:36:02;;;;;;;23.55;7.57;;;;;;;;;;4978250;28;20236;-59
2023/07/30 04:38:27;;;;;;;21.95;7.32;;;;;;;;;;4978916;28;20576;-59
2023/07/30 04:40:52;;;;;;;21.75;7.13;;;;;;;;;;4978826;28;20213;-59
2023/07/30 04:43:18;;;;;;;24.13;7.90;;;;;;;;;;4977241;28;20291;-59
2023/07/30 04:45:43;;;;;;;23.25;7.88;;;;;;;;;;4978589;28;20221;-60
2023/07/30 04:48:08;;;;;;;19.58;7.82;;;;;;;;;;4971914;28;20279;-59
2023/07/30 04:50:34;;;;;;;24.55;8.27;;;;;;;;;;4969146;28;20315;-60
2023/07/30 04:52:59;;;;;;;25.55;8.07;;;;;;;;;;4970510;28;20213;-59
2023/07/30 04:55:25;;;;;;;49.05;8.88;;;;;;;;;;4977184;28;20564;-59
2023/07/30 04:57:50;;;;;;;31.45;8.40;;;;;;;;;;4977564;28;20677;-59
2023/07/30 05:00:15;;;;;;;22.33;7.95;;;;;;;;;;4977133;28;20217;-59
2023/07/30 05:02:41;;;;;;;21.60;8.43;;;;;;;;;;4979547;28;20826;-59
2023/07/30 05:05:06;;;;;;;27.02;8.77;;;;;;;;;;4982545;28;20299;-59
2023/07/30 05:07:32;;;;;;;23.30;8.15;;;;;;;;;;4982979;28;20561;-59
2023/07/30 05:09:57;;;;;;;23.80;8.35;;;;;;;;;;4981870;28;20213;-59
2023/07/30 05:12:22;;;;;;;22.80;7.93;;;;;;;;;;4972239;28;20639;-59
2023/07/30 05:14:48;;;;;;;21.23;8.52;;;;;;;;;;4975856;28;20770;-59
2023/07/30 05:17:13;;;;;;;27.20;8.55;;;;;;;;;;4978640;28;20223;-59
2023/07/30 05:19:38;;;;;;;25.63;9.60;;;;;;;;;;4980188;28;20261;-59
2023/07/30 05:22:05;;;;;;;29.50;9.30;;;;;;;;;;4982186;28;20822;-59
2023/07/30 05:24:31;;;;;;;27.15;9.27;;;;;;;;;;4982854;28;20756;-59
2023/07/30 05:26:56;;;;;;;28.30;10.15;;;;;;;;;;4963188;28;20280;-59
2023/07/30 05:29:21;;;;;;;27.70;8.90;;;;;;;;;;4981355;28;20225;-59
2023/07/30 05:31:46;;;;;;;24.52;9.48;;;;;;;;;;4980772;28;20217;-59
2023/07/30 05:34:12;;;;;;;29.60;9.82;;;;;;;;;;4973037;28;20264;-59
2023/07/30 05:36:37;;;;;;;25.05;9.95;;;;;;;;;;4973482;28;20259;-59
2023/07/30 05:39:02;;;;;;;26.85;9.75;;;;;;;;;;4976471;28;20220;-59
2023/07/30 05:41:28;;;;;;;25.98;9.55;;;;;;;;;;4981911;28;20557;-59
2023/07/30 05:43:53;;;;;;;39.55;11.43;;;;;;;;;;4979917;28;20315;-59
2023/07/30 05:46:18;;;;;;;32.92;11.25;;;;;;;;;;4981922;28;20220;-59
2023/07/30 05:48:43;;;;;;;44.80;10.68;;;;;;;;;;4981486;28;20712;-59
2023/07/30 05:51:09;;;;;;;31.58;11.05;;;;;;;;;;4980324;28;20258;-59
2023/07/30 05:53:34;;;;;;;30.42;11.02;;;;;;;;;;4981249;28;20221;-59
2023/07/30 05:55:59;;;;;;;31.23;10.60;;;;;;;;;;4974758;28;20378;-59
2023/07/30 05:58:25;;;;;;;31.70;10.15;;;;;;;;;;4977002;28;20213;-59
2023/07/30 06:00:50;;;;;;;28.48;11.35;;;;;;;;;;4988614;28;20220;-60
2023/07/30 06:03:15;;;;;;;39.00;11.75;;;;;;;;;;4990207;28;20326;-60
2023/07/30 06:05:41;;;;;;;29.73;11.73;;;;;;;;;;4991075;28;20444;-60
2023/07/30 06:08:06;;;;;;;27.27;10.95;;;;;;;;;;4987882;28;20217;-60
2023/07/30 06:10:33;;;;;;;30.20;11.07;;;;;;;;;;4990677;28;20677;-59
2023/07/30 06:12:59;;;;;;;25.63;11.20;;;;;;;;;;4991034;28;20225;-60
2023/07/30 06:15:24;;;;;;;38.47;13.02;;;;;;;;;;4987619;28;20592;-60
2023/07/30 06:17:49;;;;;;;29.00;11.13;;;;;;;;;;4989328;28;20217;-60
2023/07/30 06:20:15;;;;;;;31.63;12.80;;;;;;;;;;4990449;28;20209;-59
2023/07/30 06:22:40;;;;;;;29.88;11.52;;;;;;;;;;4989930;28;20259;-60
2023/07/30 06:25:05;;;;;;;35.42;12.93;;;;;;;;;;4988278;28;20658;-60
2023/07/30 06:27:31;;;;;;;41.10;13.18;;;;;;;;;;4991116;28;20707;-60
2023/07/30 06:29:56;;;;;;;34.45;13.25;;;;;;;;;;4990081;28;20217;-60
2023/07/30 06:32:21;;;;;;;32.13;12.50;;;;;;;;;;4987798;28;20217;-60
2023/07/30 06:34:47;;;;;;;33.22;12.85;;;;;;;;;;4989611;28;20217;-60
2023/07/30 06:37:12;;;;;;;46.67;13.43;;;;;;;;;;4991659;28;20254;-60
2023/07/30 06:39:37;;;;;;;27.20;12.05;;;;;;;;;;4991723;28;20212;-60
2023/07/30 06:42:03;;;;;;;28.85;12.38;;;;;;;;;;4988367;28;20715;-60
2023/07/30 06:44:28;;;;;;;33.80;12.15;;;;;;;;;;4988283;28;20206;-60
2023/07/30 06:46:53;;;;;;;29.20;11.95;;;;;;;;;;4989905;28;20256;-60
2023/07/30 06:49:19;;;;;;;32.15;12.25;;;;;;;;;;4989527;28;20204;-59
2023/07/30 06:51:44;;;;;;;34.80;12.52;;;;;;;;;;4986457;28;20217;-60
2023/07/30 06:54:09;;;;;;;33.35;11.95;;;;;;;;;;4989895;28;20215;-61
2023/07/30 06:56:34;;;;;;;31.17;12.30;;;;;;;;;;4990882;28;20217;-60
2023/07/30 06:59:01;;;;;;;26.45;11.27;;;;;;;;;;4988007;28;20730;-60
2023/07/30 07:01:26;;;;;;;26.10;10.98;;;;;;;;;;4989662;28;20251;-61
2023/07/30 07:03:51;;;;;;;39.95;13.52;;;;;;;;;;4989995;28;20217;-61
2023/07/30 07:06:17;;;;;;;31.15;11.30;;;;;;;;;;4988095;28;20217;-62
2023/07/30 07:08:42;;;;;;;30.08;11.65;;;;;;;;;;4988866;28;20687;-61
2023/07/30 07:11:07;;;;;;;30.80;10.68;;;;;;;;;;4989668;28;20217;-60
2023/07/30 07:13:33;;;;;;;28.75;10.88;;;;;;;;;;4989667;28;20221;-60
2023/07/30 07:15:58;;;;;;;31.55;11.18;;;;;;;;;;4983205;28;20700;-60
2023/07/30 07:18:23;;;;;;;26.17;11.10;;;;;;;;;;4989546;28;20257;-59
2023/07/30 07:20:49;;;;;;;28.10;11.15;;;;;;;;;;4989201;28;20228;-60
2023/07/30 07:23:14;;;;;;;30.15;11.23;;;;;;;;;;4987725;28;20317;-59
2023/07/30 07:25:39;;;;;;;26.73;10.65;;;;;;;;;;4988830;28;20247;-60
2023/07/30 07:28:05;;;;;;;44.15;12.57;;;;;;;;;;4989047;28;20221;-60
2023/07/30 07:30:30;;;;;;;32.10;10.63;;;;;;;;;;4987293;28;20247;-60
2023/07/30 07:32:55;;;;;;;24.55;10.07;;;;;;;;;;4987085;28;20247;-60
2023/07/30 07:35:21;;;;;;;29.33;10.23;;;;;;;;;;4989476;28;20209;-60
2023/07/30 07:37:46;;;;;;;26.65;10.50;;;;;;;;;;4989924;28;20228;-60
2023/07/30 07:40:11;;;;;;;26.15;10.63;;;;;;;;;;4985902;28;20625;-60
2023/07/30 07:42:37;;;;;;;32.72;11.15;;;;;;;;;;4982292;28;20227;-60
2023/07/30 07:45:03;;;;;;;27.40;11.00;;;;;;;;;;4988868;28;20213;-60
2023/07/30 07:47:28;;;;;;;27.42;11.93;;;;;;;;;;4986973;28;20229;-60
2023/07/30 07:49:54;;;;;;;26.27;10.63;;;;;;;;;;4988634;28;20704;-60
2023/07/30 07:52:20;;;;;;;38.80;11.35;;;;;;;;;;4988876;28;20224;-60
2023/07/30 07:54:45;;;;;;;32.28;10.10;;;;;;;;;;4986464;28;20228;-60
2023/07/30 07:57:11;;;;;;;28.75;9.77;;;;;;;;;;4987001;28;20208;-60
2023/07/30 07:59:36;;;;;;;23.75;8.82;;;;;;;;;;4989635;28;20220;-60
2023/07/30 08:02:02;;;;;;;26.40;9.45;;;;;;;;;;4988072;28;20591;-59
2023/07/30 08:04:27;;;;;;;31.33;8.88;;;;;;;;;;4992028;28;20217;-59
2023/07/30 08:06:52;;;;;;;37.13;8.82;;;;;;;;;;4986967;28;20297;-59
2023/07/30 08:09:17;;;;;;;182.60;15.98;;;;;;;;;;4988271;28;20219;-59
2023/07/30 08:11:43;;;;;;;25.40;7.32;;;;;;;;;;4988690;28;20224;-59
2023/07/30 08:14:08;;;;;;;31.95;7.43;;;;;;;;;;4986556;28;21249;-59
2023/07/30 08:16:33;;;;;;;23.33;7.32;;;;;;;;;;4987543;28;20220;-59
2023/07/30 08:18:59;;;;;;;22.00;7.15;;;;;;;;;;4988982;28;20213;-59
2023/07/30 08:21:24;;;;;;;20.48;7.05;;;;;;;;;;4987426;28;20346;-59
2023/07/30 08:23:49;;;;;;;20.02;6.43;;;;;;;;;;4986541;28;20228;-59
2023/07/30 08:26:14;;;;;;;18.85;5.97;;;;;;;;;;4988116;28;20209;-59
2023/07/30 08:28:40;;;;;;;29.80;6.55;;;;;;;;;;4988749;28;20221;-59
2023/07/30 08:31:05;;;;;;;27.58;6.10;;;;;;;;;;4985135;28;20205;-59
2023/07/30 08:33:30;;;;;;;19.83;6.50;;;;;;;;;;4988616;28;20568;-59
2023/07/30 08:35:56;;;;;;;27.15;7.05;;;;;;;;;;4988877;28;20221;-59
2023/07/30 08:38:22;;;;;;;22.67;6.55;;;;;;;;;;4984583;28;20213;-59
2023/07/30 08:40:47;;;;;;;24.75;5.90;;;;;;;;;;4988066;28;20244;-59
2023/07/30 08:43:12;;;;;;;27.52;6.72;;;;;;;;;;4988244;28;20228;-59
2023/07/30 08:45:37;;;;;;;24.70;6.50;;;;;;;;;;4973770;28;20217;-59
2023/07/30 08:48:03;;;;;;;23.63;6.45;;;;;;;;;;4988004;28;20236;-59
2023/07/30 08:50:28;;;;;;;33.55;6.80;;;;;;;;;;4988548;28;20213;-59
2023/07/30 08:52:54;;;;;;;23.08;6.53;;;;;;;;;;4986096;28;20243;-59
2023/07/30 08:55:20;;;;;;;20.15;6.78;;;;;;;;;;4987781;28;20233;-59
2023/07/30 08:57:45;;;;;;;23.35;6.40;;;;;;;;;;4987592;28;20308;-59
2023/07/30 09:00:11;;;;;;;22.75;6.45;;;;;;;;;;4986727;28;20209;-59
2023/07/30 09:02:36;;;;;;;17.35;5.70;;;;;;;;;;4987246;28;20239;-59
2023/07/30 09:05:02;;;;;;;19.83;6.10;;;;;;;;;;4987197;28;20221;-59
2023/07/30 09:07:27;;;;;;;18.23;5.55;;;;;;;;;;4970813;28;20559;-59
2023/07/30 09:09:52;;;;;;;22.02;6.95;;;;;;;;;;4986311;28;20228;-59
2023/07/30 09:12:18;;;;;;;18.10;5.40;;;;;;;;;;4986873;28;20703;-59
2023/07/30 09:14:49;;;;;;;20.50;5.90;;;;;;;;;;4988293;28;20220;-59
2023/07/30 09:17:18;;;;;;;18.83;4.57;;;;;;;;;;4986309;28;20209;-59
2023/07/30 09:19:43;;;;;;;29.42;5.50;;;;;;;;;;4986894;28;20224;-59
2023/07/30 09:22:08;;;;;;;23.25;4.80;;;;;;;;;;4987382;28;20224;-59
2023/07/30 09:24:33;;;;;;;18.85;4.18;;;;;;;;;;4986615;28;20213;-59
2023/07/30 09:27:02;;;;;;;15.80;4.88;;;;;;;;;;4985452;28;20217;-58
2023/07/30 09:29:27;;;;;;;18.80;4.93;;;;;;;;;;4987909;28;20210;-59
2023/07/30 09:31:54;;;;;;;21.70;4.20;;;;;;;;;;4988207;28;20248;-59
2023/07/30 09:34:20;;;;;;;17.42;4.43;;;;;;;;;;4983651;28;20324;-59
2023/07/30 09:36:46;;;;;;;16.90;4.35;;;;;;;;;;4987346;28;20756;-59
2023/07/30 09:39:15;;;;;;;20.23;4.47;;;;;;;;;;4987550;28;20620;-59
2023/07/30 09:41:42;;;;;;;21.58;4.22;;;;;;;;;;4986084;28;20300;-59
2023/07/30 09:44:07;;;;;;;23.13;4.43;;;;;;;;;;4985509;28;20231;-59
2023/07/30 09:46:34;;;;;;;30.60;4.78;;;;;;;;;;4987134;28;20217;-59
2023/07/30 09:48:59;;;;;;;19.13;3.92;;;;;;;;;;4969322;28;20292;-59
2023/07/30 09:51:24;;;;;;;18.95;4.15;;;;;;;;;;4971365;28;20307;-59
2023/07/30 09:53:50;;;;;;;14.07;3.88;;;;;;;;;;4991092;28;20638;-59
2023/07/30 09:56:15;;;;;;;15.25;3.60;;;;;;;;;;4991239;28;20229;-59
2023/07/30 09:58:42;;;;;;;18.70;4.18;;;;;;;;;;4989901;28;20622;-59
2023/07/30 10:01:07;;;;;;;15.70;3.55;;;;;;;;;;4989489;28;20300;-59
2023/07/30 10:03:33;;;;;;;13.60;3.72;;;;;;;;;;4991262;28;20363;-59
2023/07/30 10:06:02;;;;;;;13.65;3.78;;;;;;;;;;4970193;28;20221;-59
2023/07/30 10:08:27;;;;;;;17.83;3.30;;;;;;;;;;4986555;28;20731;-59
2023/07/30 10:10:53;;;;;;;11.82;2.97;;;;;;;;;;4973907;28;20334;-59
2023/07/30 10:13:18;;;;;;;16.70;3.08;;;;;;;;;;4973049;28;20213;-59
2023/07/30 10:15:44;;;;;;;13.00;3.22;;;;;;;;;;4988156;28;20372;-59
2023/07/30 10:18:09;;;;;;;14.70;3.42;;;;;;;;;;4959953;28;20319;-59
2023/07/30 10:20:34;;;;;;;12.68;3.08;;;;;;;;;;4979680;28;20217;-59
2023/07/30 10:23:00;;;;;;;9.45;2.63;;;;;;;;;;4983336;28;20220;-59
2023/07/30 10:25:43;;;;;;;10.80;2.95;;;;;;;;;;4983449;28;20292;-59
2023/07/30 10:28:08;;;;;;;13.75;3.05;;;;;;;;;;4984150;28;20595;-59
2023/07/30 10:30:34;;;;;;;12.55;2.90;;;;;;;;;;4983510;28;20217;-59
2023/07/30 10:33:00;;;;;;;15.18;3.53;;;;;;;;;;4981103;28;20233;-59
2023/07/30 10:35:42;;;;;;;14.55;3.15;;;;;;;;;;4984361;28;20303;-59
2023/07/30 10:38:31;;;;;;;14.73;3.13;;;;;;;;;;4976440;28;20221;-61
2023/07/30 10:41:02;;;;;;;13.57;3.58;;;;;;;;;;4976972;28;20884;-61
2023/07/30 10:43:29;;;;;;;25.48;3.75;;;;;;;;;;4976017;28;20229;-61
2023/07/30 10:45:54;;;;;;;17.50;3.08;;;;;;;;;;4983942;28;20216;-61
2023/07/30 10:48:20;;;;;;;37.30;4.05;;;;;;;;;;4984545;28;20240;-61
2023/07/30 10:50:48;;;;;;;13.55;2.70;;;;;;;;;;4965683;28;20423;-61
2023/07/30 10:53:14;;;;;;;24.38;3.92;;;;;;;;;;4981986;28;20221;-60
2023/07/30 10:55:39;;;;;;;9.68;2.30;;;;;;;;;;4984005;28;20228;-61
2023/07/30 10:58:04;;;;;;;9.48;2.00;;;;;;;;;;4983723;28;20221;-60
2023/07/30 11:00:30;;;;;;;12.50;2.95;;;;;;;;;;4951450;28;20217;-60
2023/07/30 11:02:55;;;;;;;10.00;2.78;;;;;;;;;;4958708;28;20233;-60
2023/07/30 11:05:20;;;;;;;16.45;2.38;;;;;;;;;;4976964;28;20221;-61
2023/07/30 11:07:50;;;;;;;10.85;2.00;;;;;;;;;;4982103;28;20797;-61
2023/07/30 11:10:15;;;;;;;8.20;1.85;;;;;;;;;;4982827;28;20217;-61
2023/07/30 11:12:40;;;;;;;8.98;1.92;;;;;;;;;;4983673;28;20677;-60
2023/07/30 11:15:06;;;;;;;17.75;2.75;;;;;;;;;;4983586;28;20237;-61
2023/07/30 11:17:31;;;;;;;15.00;2.60;;;;;;;;;;4982302;28;20605;-61
2023/07/30 11:19:56;;;;;;;9.25;1.98;;;;;;;;;;4954910;28;20201;-60
2023/07/30 11:22:31;;;;;;;15.13;2.25;;;;;;;;;;4979640;28;20233;-61
2023/07/30 11:24:56;;;;;;;14.68;2.70;;;;;;;;;;4974103;28;20796;-61
2023/07/30 11:27:21;;;;;;;13.63;2.63;;;;;;;;;;4957070;28;20688;-61
2023/07/30 11:29:55;;;;;;;12.05;2.65;;;;;;;;;;4984334;28;20592;-61
2023/07/30 11:32:23;;;;;;;17.98;2.38;;;;;;;;;;4967724;28;20639;-60
2023/07/30 11:34:49;;;;;;;6.60;1.45;;;;;;;;;;4986559;28;20753;-60
2023/07/30 11:37:14;;;;;;;7.97;2.20;;;;;;;;;;4988262;28;20324;-60
2023/07/30 11:39:39;;;;;;;14.40;2.92;;;;;;;;;;4988572;28;20579;-60
2023/07/30 11:42:05;;;;;;;12.70;2.40;;;;;;;;;;4987547;28;20288;-60
2023/07/30 11:44:33;;;;;;;10.30;2.03;;;;;;;;;;4988000;28;20685;-60
2023/07/30 11:46:58;;;;;;;7.65;1.92;;;;;;;;;;4987505;28;20233;-60
2023/07/30 11:49:23;;;;;;;10.52;2.25;;;;;;;;;;4987776;28;20220;-60
2023/07/30 11:51:49;;;;;;;8.32;1.95;;;;;;;;;;4987605;28;21793;-59
2023/07/30 11:54:21;;;;;;;15.13;2.45;;;;;;;;;;4987357;28;20217;-59
2023/07/30 11:56:46;;;;;;;10.65;2.30;;;;;;;;;;4985424;28;20243;-59
2023/07/30 11:59:12;;;;;;;12.20;1.80;;;;;;;;;;4980083;28;20697;-60
2023/07/30 12:01:37;;;;;;;6.75;1.73;;;;;;;;;;4981827;28;20217;-60
2023/07/30 12:04:03;;;;;;;12.15;1.92;;;;;;;;;;4985386;28;20295;-60
2023/07/30 12:06:41;;;;;;;13.23;2.10;;;;;;;;;;4984183;28;20760;-60
2023/07/30 12:09:11;;;;;;;10.02;2.08;;;;;;;;;;4982557;28;20235;-60
2023/07/30 12:11:43;;;;;;;21.55;2.30;;;;;;;;;;4963264;28;20925;-60
2023/07/30 12:14:08;;;;;;;13.82;2.35;;;;;;;;;;4973760;28;20545;-60
2023/07/30 12:16:34;;;;;;;12.02;1.92;;;;;;;;;;4975033;28;20220;-60
2023/07/30 12:18:59;;;;;;;16.20;2.72;;;;;;;;;;4975362;28;20220;-60
2023/07/30 12:21:24;;;;;;;12.13;2.00;;;;;;;;;;4981247;28;20229;-60
2023/07/30 12:23:50;;;;;;;11.90;2.00;;;;;;;;;;4982899;28;20233;-60
2023/07/30 12:26:15;;;;;;;16.98;2.03;;;;;;;;;;4982031;28;20298;-60
2023/07/30 12:28:40;;;;;;;11.88;2.10;;;;;;;;;;4980246;28;20716;-60
2023/07/30 12:31:06;;;;;;;15.20;1.83;;;;;;;;;;4982310;28;20232;-59
2023/07/30 12:33:31;;;;;;;10.30;1.70;;;;;;;;;;4982630;28;20217;-60
2023/07/30 12:35:57;;;;;;;7.78;1.90;;;;;;;;;;4973965;28;20224;-60
2023/07/30 12:38:22;;;;;;;12.18;2.00;;;;;;;;;;4974995;28;20217;-60
2023/07/30 12:40:47;;;;;;;13.18;1.80;;;;;;;;;;4976678;28;20224;-60
2023/07/30 12:43:13;;;;;;;11.93;2.22;;;;;;;;;;4977536;28;20259;-60
2023/07/30 12:45:39;;;;;;;15.65;2.25;;;;;;;;;;4981600;28;20209;-60
2023/07/30 12:48:04;;;;;;;9.52;2.00;;;;;;;;;;4982120;28;20248;-60
2023/07/30 12:50:29;;;;;;;13.77;1.85;;;;;;;;;;4981132;28;20316;-60
2023/07/30 12:52:55;;;;;;;10.43;1.80;;;;;;;;;;4980851;28;20205;-60
2023/07/30 12:55:20;;;;;;;15.38;2.25;;;;;;;;;;4982168;28;20307;-60
2023/07/30 12:57:45;;;;;;;10.68;1.70;;;;;;;;;;4978370;28;20729;-60
2023/07/30 13:00:11;;;;;;;12.20;1.77;;;;;;;;;;4971986;28;20775;-60
2023/07/30 13:02:36;;;;;;;13.35;1.52;;;;;;;;;;4973074;28;20252;-60
2023/07/30 13:05:03;;;;;;;9.32;1.60;;;;;;;;;;4977106;28;20280;-60
2023/07/30 13:07:29;;;;;;;5.78;1.50;;;;;;;;;;4981544;28;20229;-60
2023/07/30 13:10:02;;;;;;;10.30;1.30;;;;;;;;;;4981604;28;20294;-60
2023/07/30 13:12:27;;;;;;;14.15;1.98;;;;;;;;;;4981731;28;20681;-60
2023/07/30 13:14:53;;;;;;;9.82;1.60;;;;;;;;;;4982122;28;20213;-60
2023/07/30 13:17:18;;;;;;;7.82;1.10;;;;;;;;;;4978934;28;20878;-60
2023/07/30 13:19:43;;;;;;;18.45;1.60;;;;;;;;;;4980850;28;20224;-60
2023/07/30 13:22:09;;;;;;;10.82;1.65;;;;;;;;;;4971935;28;20263;-60
2023/07/30 13:24:35;;;;;;;10.50;1.30;;;;;;;;;;4975016;28;20728;-60
2023/07/30 13:27:01;;;;;;;5.40;1.00;;;;;;;;;;4977331;28;20213;-60
2023/07/30 13:29:26;;;;;;;5.03;1.23;;;;;;;;;;4985963;28;20215;-60
2023/07/30 13:31:51;;;;;;;4.78;1.08;;;;;;;;;;4985207;28;20252;-60
2023/07/30 13:34:17;;;;;;;8.52;1.30;;;;;;;;;;4983085;28;20223;-60
2023/07/30 13:36:42;;;;;;;5.88;1.30;;;;;;;;;;4986424;28;20985;-60
2023/07/30 13:39:07;;;;;;;6.55;1.30;;;;;;;;;;4984835;28;20209;-60
2023/07/30 13:41:32;;;;;;;5.55;1.10;;;;;;;;;;4988098;28;20577;-60
2023/07/30 13:43:58;;;;;;;11.63;1.50;;;;;;;;;;4980137;28;20255;-60
2023/07/30 13:46:23;;;;;;;14.40;1.90;;;;;;;;;;4976339;28;20282;-60
2023/07/30 13:48:48;;;;;;;11.60;1.40;;;;;;;;;;4977434;28;20303;-60
2023/07/30 13:51:14;;;;;;;20.67;2.17;;;;;;;;;;4983249;28;20374;-60
2023/07/30 13:53:41;;;;;;;6.13;1.15;;;;;;;;;;4984649;28;20221;-60
2023/07/30 13:56:06;;;;;;;14.68;1.42;;;;;;;;;;4983346;28;20743;-60
2023/07/30 13:58:32;;;;;;;13.88;1.63;;;;;;;;;;4985099;28;20216;-59
2023/07/30 14:00:57;;;;;;;8.65;1.50;;;;;;;;;;4984537;28;20220;-60
2023/07/30 14:03:22;;;;;;;9.27;1.15;;;;;;;;;;4983285;28;20228;-60
2023/07/30 14:05:48;;;;;;;5.03;0.95;;;;;;;;;;4980990;28;20638;-61
2023/07/30 14:08:13;;;;;;;4.70;1.00;;;;;;;;;;4976837;28;20593;-60
2023/07/30 14:10:38;;;;;;;7.25;1.13;;;;;;;;;;4977284;28;20693;-59
2023/07/30 14:13:04;;;;;;;11.23;1.73;;;;;;;;;;4978827;28;20213;-60
2023/07/30 14:15:29;;;;;;;9.73;1.33;;;;;;;;;;4984306;28;20314;-59
2023/07/30 14:17:54;;;;;;;6.55;1.27;;;;;;;;;;4985544;28;20339;-60
2023/07/30 14:20:20;;;;;;;16.95;1.65;;;;;;;;;;4985265;28;20238;-60